sensor_id;sensor_type;location;lat;lon;timestamp;P1;durP1;ratioP1;P2;durP2;ratioP2
8825;SDS011;4449;50.872;4.714;2022-12-15T00:00:19;20.80;;;11.52;;
8825;SDS011;4449;50.872;4.714;2022-12-15T00:03:05;19.50;;;11.70;;
8825;SDS011;4449;50.872;4.714;2022-12-15T00:05:52;19.83;;;11.75;;
8825;SDS011;4449;50.872;4.714;2022-12-15T00:08:37;25.73;;;12.52;;
8825;SDS011;4449;50.872;4.714;2022-12-15T00:11:22;19.00;;;11.10;;
8825;SDS011;4449;50.872;4.714;2022-12-15T00:14:07;24.55;;;10.95;;
8825;SDS011;4449;50.872;4.714;2022-12-15T00:16:52;16.98;;;10.90;;
8825;SDS011;4449;50.872;4.714;2022-12-15T00:19:37;23.35;;;10.68;;
8825;SDS011;4449;50.872;4.714;2022-12-15T00:22:24;20.85;;;11.52;;
8825;SDS011;4449;50.872;4.714;2022-12-15T00:25:09;21.33;;;10.25;;
8825;SDS011;4449;50.872;4.714;2022-12-15T00:27:55;19.98;;;11.55;;
8825;SDS011;4449;50.872;4.714;2022-12-15T00:30:40;19.30;;;10.68;;
8825;SDS011;4449;50.872;4.714;2022-12-15T00:33:25;19.80;;;10.35;;
8825;SDS011;4449;50.872;4.714;2022-12-15T00:36:10;18.90;;;9.90;;
8825;SDS011;4449;50.872;4.714;2022-12-15T00:38:57;19.33;;;10.82;;
8825;SDS011;4449;50.872;4.714;2022-12-15T00:41:25;15.07;;;10.05;;
8825;SDS011;4449;50.872;4.714;2022-12-15T00:43:52;17.20;;;10.05;;
8825;SDS011;4449;50.872;4.714;2022-12-15T00:46:20;15.50;;;9.25;;
8825;SDS011;4449;50.872;4.714;2022-12-15T00:49:05;19.55;;;11.45;;
8825;SDS011;4449;50.872;4.714;2022-12-15T00:51:53;21.83;;;10.75;;
8825;SDS011;4449;50.872;4.714;2022-12-15T00:54:40;21.10;;;10.07;;
8825;SDS011;4449;50.872;4.714;2022-12-15T00:57:25;19.27;;;10.25;;
8825;SDS011;4449;50.872;4.714;2022-12-15T01:00:11;20.77;;;10.68;;
8825;SDS011;4449;50.872;4.714;2022-12-15T01:02:56;24.23;;;10.75;;
8825;SDS011;4449;50.872;4.714;2022-12-15T01:05:41;20.15;;;10.52;;
8825;SDS011;4449;50.872;4.714;2022-12-15T01:08:26;16.98;;;10.43;;
8825;SDS011;4449;50.872;4.714;2022-12-15T01:11:13;17.05;;;8.88;;
8825;SDS011;4449;50.872;4.714;2022-12-15T01:13:57;21.00;;;11.85;;
8825;SDS011;4449;50.872;4.714;2022-12-15T01:16:43;19.60;;;9.43;;
8825;SDS011;4449;50.872;4.714;2022-12-15T01:19:28;18.23;;;10.07;;
8825;SDS011;4449;50.872;4.714;2022-12-15T01:22:13;15.02;;;9.77;;
8825;SDS011;4449;50.872;4.714;2022-12-15T01:24:41;20.90;;;10.45;;
8825;SDS011;4449;50.872;4.714;2022-12-15T01:27:11;21.08;;;11.77;;
8825;SDS011;4449;50.872;4.714;2022-12-15T01:29:38;15.95;;;10.18;;
8825;SDS011;4449;50.872;4.714;2022-12-15T01:32:06;23.88;;;10.68;;
8825;SDS011;4449;50.872;4.714;2022-12-15T01:34:34;16.27;;;9.13;;
8825;SDS011;4449;50.872;4.714;2022-12-15T01:37:02;22.33;;;11.15;;
8825;SDS011;4449;50.872;4.714;2022-12-15T01:39:30;21.40;;;10.93;;
8825;SDS011;4449;50.872;4.714;2022-12-15T01:42:12;23.65;;;11.13;;
8825;SDS011;4449;50.872;4.714;2022-12-15T01:44:40;22.75;;;10.70;;
8825;SDS011;4449;50.872;4.714;2022-12-15T01:47:08;20.92;;;10.95;;
8825;SDS011;4449;50.872;4.714;2022-12-15T01:49:39;18.98;;;10.98;;
8825;SDS011;4449;50.872;4.714;2022-12-15T01:52:07;25.42;;;11.85;;
8825;SDS011;4449;50.872;4.714;2022-12-15T01:54:37;20.55;;;10.73;;
8825;SDS011;4449;50.872;4.714;2022-12-15T01:57:06;21.27;;;11.02;;
8825;SDS011;4449;50.872;4.714;2022-12-15T01:59:38;21.10;;;11.57;;
8825;SDS011;4449;50.872;4.714;2022-12-15T02:02:08;16.38;;;10.80;;
8825;SDS011;4449;50.872;4.714;2022-12-15T02:04:36;21.63;;;11.70;;
8825;SDS011;4449;50.872;4.714;2022-12-15T02:07:03;25.38;;;10.55;;
8825;SDS011;4449;50.872;4.714;2022-12-15T02:09:31;17.65;;;11.50;;
8825;SDS011;4449;50.872;4.714;2022-12-15T02:12:00;18.33;;;10.15;;
8825;SDS011;4449;50.872;4.714;2022-12-15T02:14:37;17.30;;;10.73;;
8825;SDS011;4449;50.872;4.714;2022-12-15T02:17:10;19.30;;;10.82;;
8825;SDS011;4449;50.872;4.714;2022-12-15T02:22:31;15.90;;;9.80;;
8825;SDS011;4449;50.872;4.714;2022-12-15T02:27:52;19.65;;;10.80;;
8825;SDS011;4449;50.872;4.714;2022-12-15T02:30:24;20.23;;;11.00;;
8825;SDS011;4449;50.872;4.714;2022-12-15T02:35:52;18.05;;;9.27;;
8825;SDS011;4449;50.872;4.714;2022-12-15T02:38:28;16.13;;;11.23;;
8825;SDS011;4449;50.872;4.714;2022-12-15T02:40:57;17.48;;;10.27;;
8825;SDS011;4449;50.872;4.714;2022-12-15T02:43:25;17.13;;;11.00;;
8825;SDS011;4449;50.872;4.714;2022-12-15T02:45:56;17.80;;;10.55;;
8825;SDS011;4449;50.872;4.714;2022-12-15T02:48:31;17.92;;;10.18;;
8825;SDS011;4449;50.872;4.714;2022-12-15T02:51:07;21.23;;;11.65;;
8825;SDS011;4449;50.872;4.714;2022-12-15T02:53:40;21.08;;;11.60;;
8825;SDS011;4449;50.872;4.714;2022-12-15T02:56:11;26.65;;;9.02;;
8825;SDS011;4449;50.872;4.714;2022-12-15T02:58:42;18.77;;;11.85;;
8825;SDS011;4449;50.872;4.714;2022-12-15T03:01:15;14.60;;;9.27;;
8825;SDS011;4449;50.872;4.714;2022-12-15T03:03:44;17.90;;;10.00;;
8825;SDS011;4449;50.872;4.714;2022-12-15T03:06:13;21.58;;;11.30;;
8825;SDS011;4449;50.872;4.714;2022-12-15T03:08:41;18.13;;;10.38;;
8825;SDS011;4449;50.872;4.714;2022-12-15T03:11:09;20.83;;;10.60;;
8825;SDS011;4449;50.872;4.714;2022-12-15T03:13:36;22.27;;;11.13;;
8825;SDS011;4449;50.872;4.714;2022-12-15T03:16:04;26.90;;;11.63;;
8825;SDS011;4449;50.872;4.714;2022-12-15T03:18:33;16.83;;;10.10;;
8825;SDS011;4449;50.872;4.714;2022-12-15T03:21:01;18.00;;;9.43;;
8825;SDS011;4449;50.872;4.714;2022-12-15T03:23:29;17.45;;;10.32;;
8825;SDS011;4449;50.872;4.714;2022-12-15T03:25:57;18.30;;;10.73;;
8825;SDS011;4449;50.872;4.714;2022-12-15T03:28:24;26.48;;;10.57;;
8825;SDS011;4449;50.872;4.714;2022-12-15T03:30:53;19.17;;;10.55;;
8825;SDS011;4449;50.872;4.714;2022-12-15T03:33:21;21.13;;;10.38;;
8825;SDS011;4449;50.872;4.714;2022-12-15T03:35:50;17.77;;;9.55;;
8825;SDS011;4449;50.872;4.714;2022-12-15T03:38:18;20.48;;;11.00;;
8825;SDS011;4449;50.872;4.714;2022-12-15T03:40:46;15.57;;;11.05;;
8825;SDS011;4449;50.872;4.714;2022-12-15T03:43:13;19.20;;;10.75;;
8825;SDS011;4449;50.872;4.714;2022-12-15T03:45:41;17.38;;;9.70;;
8825;SDS011;4449;50.872;4.714;2022-12-15T03:48:09;21.35;;;10.68;;
8825;SDS011;4449;50.872;4.714;2022-12-15T03:50:37;16.63;;;10.10;;
8825;SDS011;4449;50.872;4.714;2022-12-15T03:53:06;24.02;;;10.80;;
8825;SDS011;4449;50.872;4.714;2022-12-15T03:55:34;18.63;;;9.50;;
8825;SDS011;4449;50.872;4.714;2022-12-15T03:58:02;21.13;;;10.55;;
8825;SDS011;4449;50.872;4.714;2022-12-15T04:00:30;22.15;;;10.25;;
8825;SDS011;4449;50.872;4.714;2022-12-15T04:02:57;19.98;;;10.73;;
8825;SDS011;4449;50.872;4.714;2022-12-15T04:05:27;18.23;;;11.50;;
8825;SDS011;4449;50.872;4.714;2022-12-15T04:07:55;29.17;;;10.40;;
8825;SDS011;4449;50.872;4.714;2022-12-15T04:10:25;22.48;;;11.45;;
8825;SDS011;4449;50.872;4.714;2022-12-15T04:12:55;21.05;;;11.35;;
8825;SDS011;4449;50.872;4.714;2022-12-15T04:15:23;16.27;;;10.57;;
8825;SDS011;4449;50.872;4.714;2022-12-15T04:17:51;18.02;;;11.30;;
8825;SDS011;4449;50.872;4.714;2022-12-15T04:20:19;21.17;;;11.40;;
8825;SDS011;4449;50.872;4.714;2022-12-15T04:22:48;20.40;;;10.95;;
8825;SDS011;4449;50.872;4.714;2022-12-15T04:25:16;22.17;;;11.77;;
8825;SDS011;4449;50.872;4.714;2022-12-15T04:28:03;20.48;;;10.38;;
8825;SDS011;4449;50.872;4.714;2022-12-15T04:30:49;20.35;;;10.88;;
8825;SDS011;4449;50.872;4.714;2022-12-15T04:33:35;16.95;;;8.85;;
8825;SDS011;4449;50.872;4.714;2022-12-15T04:36:20;19.58;;;11.30;;
8825;SDS011;4449;50.872;4.714;2022-12-15T04:39:06;16.70;;;10.38;;
8825;SDS011;4449;50.872;4.714;2022-12-15T04:41:51;22.38;;;11.15;;
8825;SDS011;4449;50.872;4.714;2022-12-15T04:44:38;22.40;;;11.93;;
8825;SDS011;4449;50.872;4.714;2022-12-15T04:47:23;28.98;;;10.07;;
8825;SDS011;4449;50.872;4.714;2022-12-15T04:50:08;22.30;;;10.00;;
8825;SDS011;4449;50.872;4.714;2022-12-15T04:52:53;22.05;;;9.68;;
8825;SDS011;4449;50.872;4.714;2022-12-15T04:55:38;22.45;;;10.52;;
8825;SDS011;4449;50.872;4.714;2022-12-15T04:58:24;22.15;;;10.55;;
8825;SDS011;4449;50.872;4.714;2022-12-15T05:01:11;22.65;;;8.95;;
8825;SDS011;4449;50.872;4.714;2022-12-15T05:03:55;21.40;;;11.80;;
8825;SDS011;4449;50.872;4.714;2022-12-15T05:06:41;32.80;;;11.25;;
8825;SDS011;4449;50.872;4.714;2022-12-15T05:09:26;17.27;;;10.07;;
8825;SDS011;4449;50.872;4.714;2022-12-15T05:12:11;16.80;;;10.73;;
8825;SDS011;4449;50.872;4.714;2022-12-15T05:14:56;15.15;;;9.77;;
8825;SDS011;4449;50.872;4.714;2022-12-15T05:17:43;20.38;;;12.02;;
8825;SDS011;4449;50.872;4.714;2022-12-15T05:20:28;25.02;;;11.18;;
8825;SDS011;4449;50.872;4.714;2022-12-15T05:23:14;14.35;;;9.18;;
8825;SDS011;4449;50.872;4.714;2022-12-15T05:25:59;23.00;;;11.40;;
8825;SDS011;4449;50.872;4.714;2022-12-15T05:28:44;19.73;;;10.40;;
8825;SDS011;4449;50.872;4.714;2022-12-15T05:31:29;24.15;;;10.40;;
8825;SDS011;4449;50.872;4.714;2022-12-15T05:34:15;26.13;;;11.38;;
8825;SDS011;4449;50.872;4.714;2022-12-15T05:36:42;17.25;;;11.07;;
8825;SDS011;4449;50.872;4.714;2022-12-15T05:39:10;17.42;;;9.65;;
8825;SDS011;4449;50.872;4.714;2022-12-15T05:41:38;23.40;;;11.93;;
8825;SDS011;4449;50.872;4.714;2022-12-15T05:44:06;18.98;;;10.85;;
8825;SDS011;4449;50.872;4.714;2022-12-15T05:46:34;16.63;;;10.32;;
8825;SDS011;4449;50.872;4.714;2022-12-15T05:49:02;23.63;;;12.13;;
8825;SDS011;4449;50.872;4.714;2022-12-15T05:51:32;27.33;;;12.00;;
8825;SDS011;4449;50.872;4.714;2022-12-15T05:53:59;16.98;;;10.75;;
8825;SDS011;4449;50.872;4.714;2022-12-15T05:56:27;24.02;;;11.82;;
8825;SDS011;4449;50.872;4.714;2022-12-15T05:58:55;22.50;;;12.85;;
8825;SDS011;4449;50.872;4.714;2022-12-15T06:01:23;18.25;;;10.95;;
8825;SDS011;4449;50.872;4.714;2022-12-15T06:03:51;26.30;;;12.30;;
8825;SDS011;4449;50.872;4.714;2022-12-15T06:06:19;15.32;;;10.20;;
8825;SDS011;4449;50.872;4.714;2022-12-15T06:08:48;23.70;;;10.75;;
8825;SDS011;4449;50.872;4.714;2022-12-15T06:11:16;18.13;;;10.85;;
8825;SDS011;4449;50.872;4.714;2022-12-15T06:13:44;25.63;;;10.55;;
8825;SDS011;4449;50.872;4.714;2022-12-15T06:16:12;25.02;;;11.93;;
8825;SDS011;4449;50.872;4.714;2022-12-15T06:18:41;20.80;;;11.55;;
8825;SDS011;4449;50.872;4.714;2022-12-15T06:21:10;19.80;;;11.18;;
8825;SDS011;4449;50.872;4.714;2022-12-15T06:23:38;15.80;;;9.88;;
8825;SDS011;4449;50.872;4.714;2022-12-15T06:26:11;18.55;;;11.60;;
8825;SDS011;4449;50.872;4.714;2022-12-15T06:28:40;28.55;;;11.43;;
8825;SDS011;4449;50.872;4.714;2022-12-15T06:31:08;17.50;;;11.80;;
8825;SDS011;4449;50.872;4.714;2022-12-15T06:33:36;21.63;;;11.02;;
8825;SDS011;4449;50.872;4.714;2022-12-15T06:36:05;21.75;;;10.88;;
8825;SDS011;4449;50.872;4.714;2022-12-15T06:38:33;16.85;;;9.40;;
8825;SDS011;4449;50.872;4.714;2022-12-15T06:41:01;17.25;;;11.32;;
8825;SDS011;4449;50.872;4.714;2022-12-15T06:43:31;22.15;;;11.05;;
8825;SDS011;4449;50.872;4.714;2022-12-15T06:45:59;18.00;;;10.43;;
8825;SDS011;4449;50.872;4.714;2022-12-15T06:48:26;25.05;;;12.48;;
8825;SDS011;4449;50.872;4.714;2022-12-15T06:50:54;23.85;;;11.88;;
8825;SDS011;4449;50.872;4.714;2022-12-15T06:53:23;22.15;;;12.05;;
8825;SDS011;4449;50.872;4.714;2022-12-15T06:55:50;21.23;;;10.23;;
8825;SDS011;4449;50.872;4.714;2022-12-15T06:58:18;24.67;;;11.32;;
8825;SDS011;4449;50.872;4.714;2022-12-15T07:00:47;20.70;;;12.45;;
8825;SDS011;4449;50.872;4.714;2022-12-15T07:03:16;24.30;;;10.80;;
8825;SDS011;4449;50.872;4.714;2022-12-15T07:05:44;19.60;;;10.07;;
8825;SDS011;4449;50.872;4.714;2022-12-15T07:08:13;18.10;;;11.15;;
8825;SDS011;4449;50.872;4.714;2022-12-15T07:10:41;22.00;;;10.80;;
8825;SDS011;4449;50.872;4.714;2022-12-15T07:13:09;17.90;;;10.23;;
8825;SDS011;4449;50.872;4.714;2022-12-15T07:15:38;20.48;;;11.30;;
8825;SDS011;4449;50.872;4.714;2022-12-15T07:18:08;21.15;;;11.00;;
8825;SDS011;4449;50.872;4.714;2022-12-15T07:20:36;19.58;;;10.30;;
8825;SDS011;4449;50.872;4.714;2022-12-15T07:23:03;22.52;;;12.43;;
8825;SDS011;4449;50.872;4.714;2022-12-15T07:25:34;17.40;;;11.52;;
8825;SDS011;4449;50.872;4.714;2022-12-15T07:28:02;22.77;;;11.50;;
8825;SDS011;4449;50.872;4.714;2022-12-15T07:30:30;31.77;;;12.38;;
8825;SDS011;4449;50.872;4.714;2022-12-15T07:32:57;22.40;;;13.50;;
8825;SDS011;4449;50.872;4.714;2022-12-15T07:35:27;20.15;;;12.80;;
8825;SDS011;4449;50.872;4.714;2022-12-15T07:37:54;22.98;;;11.27;;
8825;SDS011;4449;50.872;4.714;2022-12-15T07:40:22;22.30;;;12.23;;
8825;SDS011;4449;50.872;4.714;2022-12-15T07:42:50;24.02;;;11.57;;
8825;SDS011;4449;50.872;4.714;2022-12-15T07:45:18;24.75;;;10.93;;
8825;SDS011;4449;50.872;4.714;2022-12-15T07:47:47;20.55;;;10.27;;
8825;SDS011;4449;50.872;4.714;2022-12-15T07:50:16;21.13;;;11.85;;
8825;SDS011;4449;50.872;4.714;2022-12-15T07:52:45;21.42;;;10.98;;
8825;SDS011;4449;50.872;4.714;2022-12-15T07:55:13;19.00;;;11.98;;
8825;SDS011;4449;50.872;4.714;2022-12-15T07:57:42;20.17;;;10.13;;
8825;SDS011;4449;50.872;4.714;2022-12-15T08:00:11;20.90;;;10.63;;
8825;SDS011;4449;50.872;4.714;2022-12-15T08:02:39;21.38;;;11.23;;
8825;SDS011;4449;50.872;4.714;2022-12-15T08:05:07;26.52;;;12.02;;
8825;SDS011;4449;50.872;4.714;2022-12-15T08:07:35;24.80;;;11.70;;
8825;SDS011;4449;50.872;4.714;2022-12-15T08:10:05;21.40;;;10.98;;
8825;SDS011;4449;50.872;4.714;2022-12-15T08:12:33;20.52;;;11.38;;
8825;SDS011;4449;50.872;4.714;2022-12-15T08:15:01;20.10;;;10.85;;
8825;SDS011;4449;50.872;4.714;2022-12-15T08:17:29;17.25;;;11.15;;
8825;SDS011;4449;50.872;4.714;2022-12-15T08:19:57;28.52;;;10.75;;
8825;SDS011;4449;50.872;4.714;2022-12-15T08:22:25;20.17;;;11.30;;
8825;SDS011;4449;50.872;4.714;2022-12-15T08:24:53;16.20;;;10.88;;
8825;SDS011;4449;50.872;4.714;2022-12-15T08:27:22;22.33;;;9.95;;
8825;SDS011;4449;50.872;4.714;2022-12-15T08:29:51;27.38;;;12.73;;
8825;SDS011;4449;50.872;4.714;2022-12-15T08:32:20;25.67;;;12.90;;
8825;SDS011;4449;50.872;4.714;2022-12-15T08:34:47;24.48;;;11.68;;
8825;SDS011;4449;50.872;4.714;2022-12-15T08:37:15;18.35;;;11.07;;
8825;SDS011;4449;50.872;4.714;2022-12-15T08:39:43;19.25;;;11.23;;
8825;SDS011;4449;50.872;4.714;2022-12-15T08:42:12;25.58;;;11.75;;
8825;SDS011;4449;50.872;4.714;2022-12-15T08:44:41;20.00;;;10.98;;
8825;SDS011;4449;50.872;4.714;2022-12-15T08:47:09;20.55;;;10.70;;
8825;SDS011;4449;50.872;4.714;2022-12-15T08:49:37;21.17;;;11.52;;
8825;SDS011;4449;50.872;4.714;2022-12-15T08:52:07;22.23;;;10.43;;
8825;SDS011;4449;50.872;4.714;2022-12-15T08:54:35;24.98;;;10.75;;
8825;SDS011;4449;50.872;4.714;2022-12-15T08:57:03;18.13;;;10.93;;
8825;SDS011;4449;50.872;4.714;2022-12-15T08:59:31;26.10;;;12.65;;
8825;SDS011;4449;50.872;4.714;2022-12-15T09:02:00;26.70;;;13.82;;
8825;SDS011;4449;50.872;4.714;2022-12-15T09:04:28;26.77;;;12.32;;
8825;SDS011;4449;50.872;4.714;2022-12-15T09:06:56;26.95;;;12.73;;
8825;SDS011;4449;50.872;4.714;2022-12-15T09:09:24;20.30;;;12.88;;
8825;SDS011;4449;50.872;4.714;2022-12-15T09:11:52;23.17;;;13.00;;
8825;SDS011;4449;50.872;4.714;2022-12-15T09:14:19;24.00;;;13.98;;
8825;SDS011;4449;50.872;4.714;2022-12-15T09:16:47;27.55;;;14.95;;
8825;SDS011;4449;50.872;4.714;2022-12-15T09:19:16;33.88;;;17.05;;
8825;SDS011;4449;50.872;4.714;2022-12-15T09:21:44;31.08;;;16.42;;
8825;SDS011;4449;50.872;4.714;2022-12-15T09:24:12;27.17;;;16.15;;
8825;SDS011;4449;50.872;4.714;2022-12-15T09:26:40;26.27;;;14.02;;
8825;SDS011;4449;50.872;4.714;2022-12-15T09:29:09;34.40;;;16.33;;
8825;SDS011;4449;50.872;4.714;2022-12-15T09:31:38;34.08;;;14.93;;
8825;SDS011;4449;50.872;4.714;2022-12-15T09:34:10;53.63;;;16.17;;
8825;SDS011;4449;50.872;4.714;2022-12-15T09:36:40;33.88;;;14.82;;
8825;SDS011;4449;50.872;4.714;2022-12-15T09:39:08;30.45;;;14.70;;
8825;SDS011;4449;50.872;4.714;2022-12-15T09:41:36;26.77;;;14.13;;
8825;SDS011;4449;50.872;4.714;2022-12-15T10:42:18;27.63;;;13.38;;
8825;SDS011;4449;50.872;4.714;2022-12-15T10:44:47;28.13;;;13.70;;
8825;SDS011;4449;50.872;4.714;2022-12-15T10:47:20;27.90;;;14.52;;
8825;SDS011;4449;50.872;4.714;2022-12-15T10:49:48;28.42;;;14.20;;
8825;SDS011;4449;50.872;4.714;2022-12-15T10:52:18;28.45;;;14.45;;
8825;SDS011;4449;50.872;4.714;2022-12-15T10:54:48;21.50;;;13.45;;
8825;SDS011;4449;50.872;4.714;2022-12-15T10:57:18;19.67;;;11.88;;
8825;SDS011;4449;50.872;4.714;2022-12-15T10:59:46;30.05;;;15.93;;
8825;SDS011;4449;50.872;4.714;2022-12-15T11:05:01;28.45;;;15.00;;
8825;SDS011;4449;50.872;4.714;2022-12-15T11:07:34;30.38;;;15.00;;
8825;SDS011;4449;50.872;4.714;2022-12-15T11:10:08;24.10;;;14.05;;
8825;SDS011;4449;50.872;4.714;2022-12-15T11:12:41;27.13;;;13.63;;
8825;SDS011;4449;50.872;4.714;2022-12-15T11:18:13;28.08;;;14.10;;
8825;SDS011;4449;50.872;4.714;2022-12-15T11:20:44;24.92;;;13.20;;
8825;SDS011;4449;50.872;4.714;2022-12-15T11:23:15;28.42;;;14.48;;
8825;SDS011;4449;50.872;4.714;2022-12-15T11:25:47;30.25;;;14.82;;
8825;SDS011;4449;50.872;4.714;2022-12-15T11:28:21;24.08;;;13.43;;
8825;SDS011;4449;50.872;4.714;2022-12-15T11:30:51;26.88;;;15.20;;
8825;SDS011;4449;50.872;4.714;2022-12-15T11:33:21;26.45;;;14.55;;
8825;SDS011;4449;50.872;4.714;2022-12-15T11:35:53;26.63;;;15.45;;
8825;SDS011;4449;50.872;4.714;2022-12-15T11:38:25;31.95;;;16.88;;
8825;SDS011;4449;50.872;4.714;2022-12-15T11:40:55;31.60;;;16.73;;
8825;SDS011;4449;50.872;4.714;2022-12-15T11:43:29;25.17;;;16.05;;
8825;SDS011;4449;50.872;4.714;2022-12-15T11:46:00;30.73;;;16.42;;
8825;SDS011;4449;50.872;4.714;2022-12-15T11:48:32;38.20;;;18.70;;
8825;SDS011;4449;50.872;4.714;2022-12-15T11:51:02;34.22;;;16.58;;
8825;SDS011;4449;50.872;4.714;2022-12-15T11:53:40;29.13;;;15.88;;
8825;SDS011;4449;50.872;4.714;2022-12-15T11:56:14;26.08;;;15.48;;
8825;SDS011;4449;50.872;4.714;2022-12-15T11:58:55;30.55;;;15.35;;
8825;SDS011;4449;50.872;4.714;2022-12-15T12:04:19;31.90;;;15.70;;
8825;SDS011;4449;50.872;4.714;2022-12-15T12:06:50;24.98;;;14.57;;
8825;SDS011;4449;50.872;4.714;2022-12-15T12:09:27;25.17;;;13.77;;
8825;SDS011;4449;50.872;4.714;2022-12-15T12:11:58;23.40;;;13.98;;
8825;SDS011;4449;50.872;4.714;2022-12-15T12:14:42;29.65;;;15.20;;
8825;SDS011;4449;50.872;4.714;2022-12-15T12:17:13;26.55;;;13.18;;
8825;SDS011;4449;50.872;4.714;2022-12-15T12:19:43;33.17;;;15.63;;
8825;SDS011;4449;50.872;4.714;2022-12-15T12:22:12;27.67;;;14.85;;
8825;SDS011;4449;50.872;4.714;2022-12-15T12:24:49;29.58;;;15.38;;
8825;SDS011;4449;50.872;4.714;2022-12-15T12:27:20;29.23;;;16.13;;
8825;SDS011;4449;50.872;4.714;2022-12-15T12:29:52;27.88;;;14.52;;
8825;SDS011;4449;50.872;4.714;2022-12-15T12:32:25;31.70;;;14.68;;
8825;SDS011;4449;50.872;4.714;2022-12-15T12:34:56;32.80;;;15.38;;
8825;SDS011;4449;50.872;4.714;2022-12-15T12:37:30;26.02;;;13.57;;
8825;SDS011;4449;50.872;4.714;2022-12-15T12:40:02;28.85;;;14.80;;
8825;SDS011;4449;50.872;4.714;2022-12-15T12:42:32;27.42;;;14.43;;
8825;SDS011;4449;50.872;4.714;2022-12-15T12:45:03;22.85;;;14.10;;
8825;SDS011;4449;50.872;4.714;2022-12-15T12:47:32;26.17;;;13.60;;
8825;SDS011;4449;50.872;4.714;2022-12-15T12:50:02;23.70;;;13.20;;
8825;SDS011;4449;50.872;4.714;2022-12-15T12:52:31;20.95;;;13.40;;
8825;SDS011;4449;50.872;4.714;2022-12-15T12:55:00;22.05;;;13.45;;
8825;SDS011;4449;50.872;4.714;2022-12-15T12:57:31;22.92;;;13.27;;
8825;SDS011;4449;50.872;4.714;2022-12-15T13:00:00;26.50;;;13.23;;
8825;SDS011;4449;50.872;4.714;2022-12-15T13:08:24;18.05;;;11.73;;
8825;SDS011;4449;50.872;4.714;2022-12-15T13:10:52;20.98;;;11.80;;
8825;SDS011;4449;50.872;4.714;2022-12-15T13:13:37;24.23;;;12.75;;
8825;SDS011;4449;50.872;4.714;2022-12-15T13:16:10;24.83;;;12.40;;
8825;SDS011;4449;50.872;4.714;2022-12-15T13:18:55;22.35;;;12.15;;
8825;SDS011;4449;50.872;4.714;2022-12-15T13:24:18;17.73;;;10.60;;
8825;SDS011;4449;50.872;4.714;2022-12-15T13:26:49;12.38;;;8.73;;
8825;SDS011;4449;50.872;4.714;2022-12-15T13:29:17;23.27;;;11.25;;
8825;SDS011;4449;50.872;4.714;2022-12-15T13:31:47;20.52;;;12.00;;
8825;SDS011;4449;50.872;4.714;2022-12-15T13:34:17;24.48;;;12.07;;
8825;SDS011;4449;50.872;4.714;2022-12-15T13:36:50;22.83;;;10.40;;
8825;SDS011;4449;50.872;4.714;2022-12-15T13:39:33;15.13;;;10.43;;
8825;SDS011;4449;50.872;4.714;2022-12-15T13:44:53;17.13;;;9.43;;
8825;SDS011;4449;50.872;4.714;2022-12-15T13:47:24;22.02;;;9.43;;
8825;SDS011;4449;50.872;4.714;2022-12-15T13:49:53;16.30;;;9.82;;
8825;SDS011;4449;50.872;4.714;2022-12-15T13:52:24;19.67;;;10.15;;
8825;SDS011;4449;50.872;4.714;2022-12-15T13:54:56;14.75;;;10.00;;
8825;SDS011;4449;50.872;4.714;2022-12-15T13:57:25;19.23;;;9.43;;
8825;SDS011;4449;50.872;4.714;2022-12-15T13:59:55;14.18;;;9.88;;
8825;SDS011;4449;50.872;4.714;2022-12-15T14:02:25;17.60;;;10.63;;
8825;SDS011;4449;50.872;4.714;2022-12-15T14:05:06;16.20;;;8.93;;
8825;SDS011;4449;50.872;4.714;2022-12-15T14:07:34;18.73;;;10.40;;
8825;SDS011;4449;50.872;4.714;2022-12-15T14:10:04;17.90;;;10.60;;
8825;SDS011;4449;50.872;4.714;2022-12-15T14:12:33;18.70;;;11.07;;
8825;SDS011;4449;50.872;4.714;2022-12-15T14:15:01;20.97;;;9.87;;
8825;SDS011;4449;50.872;4.714;2022-12-15T14:17:29;21.90;;;11.17;;
8825;SDS011;4449;50.872;4.714;2022-12-15T14:20:09;17.67;;;10.50;;
8825;SDS011;4449;50.872;4.714;2022-12-15T14:22:39;24.97;;;10.83;;
8825;SDS011;4449;50.872;4.714;2022-12-15T14:25:13;21.47;;;11.93;;
8825;SDS011;4449;50.872;4.714;2022-12-15T14:27:41;19.90;;;13.10;;
8825;SDS011;4449;50.872;4.714;2022-12-15T14:30:10;32.60;;;14.02;;
8825;SDS011;4449;50.872;4.714;2022-12-15T14:32:38;23.87;;;13.80;;
8825;SDS011;4449;50.872;4.714;2022-12-15T14:35:07;23.17;;;13.30;;
8825;SDS011;4449;50.872;4.714;2022-12-15T14:37:39;25.90;;;12.87;;
8825;SDS011;4449;50.872;4.714;2022-12-15T14:40:11;21.73;;;12.40;;
8825;SDS011;4449;50.872;4.714;2022-12-15T14:42:40;24.67;;;12.63;;
8825;SDS011;4449;50.872;4.714;2022-12-15T14:45:15;24.90;;;12.17;;
8825;SDS011;4449;50.872;4.714;2022-12-15T14:47:47;19.13;;;11.18;;
8825;SDS011;4449;50.872;4.714;2022-12-15T14:50:17;21.77;;;11.77;;
8825;SDS011;4449;50.872;4.714;2022-12-15T14:52:45;19.43;;;11.03;;
8825;SDS011;4449;50.872;4.714;2022-12-15T14:55:25;25.15;;;10.43;;
8825;SDS011;4449;50.872;4.714;2022-12-15T14:57:55;19.92;;;10.50;;
8825;SDS011;4449;50.872;4.714;2022-12-15T15:00:24;24.93;;;11.13;;
8825;SDS011;4449;50.872;4.714;2022-12-15T15:05:38;22.17;;;10.27;;
8825;SDS011;4449;50.872;4.714;2022-12-15T15:08:08;23.37;;;11.30;;
8825;SDS011;4449;50.872;4.714;2022-12-15T15:10:37;20.15;;;10.68;;
8825;SDS011;4449;50.872;4.714;2022-12-15T15:13:11;13.38;;;7.45;;
8825;SDS011;4449;50.872;4.714;2022-12-15T15:15:40;17.67;;;10.43;;
8825;SDS011;4449;50.872;4.714;2022-12-15T15:18:12;26.53;;;10.70;;
8825;SDS011;4449;50.872;4.714;2022-12-15T15:20:46;26.20;;;11.17;;
8825;SDS011;4449;50.872;4.714;2022-12-15T15:23:16;20.20;;;11.20;;
8825;SDS011;4449;50.872;4.714;2022-12-15T15:25:47;24.93;;;10.63;;
8825;SDS011;4449;50.872;4.714;2022-12-15T15:28:21;15.90;;;10.93;;
8825;SDS011;4449;50.872;4.714;2022-12-15T15:30:49;29.27;;;11.77;;
8825;SDS011;4449;50.872;4.714;2022-12-15T15:33:18;23.57;;;10.63;;
8825;SDS011;4449;50.872;4.714;2022-12-15T15:35:47;24.67;;;10.70;;
8825;SDS011;4449;50.872;4.714;2022-12-15T15:38:19;17.17;;;10.23;;
8825;SDS011;4449;50.872;4.714;2022-12-15T15:40:49;23.97;;;11.20;;
8825;SDS011;4449;50.872;4.714;2022-12-15T15:43:17;25.00;;;13.00;;
8825;SDS011;4449;50.872;4.714;2022-12-15T15:45:47;33.20;;;12.37;;
8825;SDS011;4449;50.872;4.714;2022-12-15T15:48:17;24.60;;;11.50;;
8825;SDS011;4449;50.872;4.714;2022-12-15T15:50:47;23.60;;;11.70;;
8825;SDS011;4449;50.872;4.714;2022-12-15T15:53:16;20.50;;;11.87;;
8825;SDS011;4449;50.872;4.714;2022-12-15T15:55:45;24.20;;;10.90;;
8825;SDS011;4449;50.872;4.714;2022-12-15T15:58:14;21.97;;;10.93;;
8825;SDS011;4449;50.872;4.714;2022-12-15T16:00:42;27.50;;;12.20;;
8825;SDS011;4449;50.872;4.714;2022-12-15T16:03:11;21.93;;;12.07;;
8825;SDS011;4449;50.872;4.714;2022-12-15T16:05:39;25.67;;;11.80;;
8825;SDS011;4449;50.872;4.714;2022-12-15T16:08:08;23.13;;;13.83;;
8825;SDS011;4449;50.872;4.714;2022-12-15T16:10:39;28.43;;;13.40;;
8825;SDS011;4449;50.872;4.714;2022-12-15T16:13:08;26.63;;;13.37;;
8825;SDS011;4449;50.872;4.714;2022-12-15T16:15:36;24.93;;;12.40;;
8825;SDS011;4449;50.872;4.714;2022-12-15T16:18:04;26.10;;;11.97;;
8825;SDS011;4449;50.872;4.714;2022-12-15T16:20:33;24.10;;;11.60;;
8825;SDS011;4449;50.872;4.714;2022-12-15T16:23:01;21.38;;;11.52;;
8825;SDS011;4449;50.872;4.714;2022-12-15T16:25:30;26.33;;;12.23;;
8825;SDS011;4449;50.872;4.714;2022-12-15T16:27:59;22.98;;;11.88;;
8825;SDS011;4449;50.872;4.714;2022-12-15T16:30:27;22.80;;;11.13;;
8825;SDS011;4449;50.872;4.714;2022-12-15T16:32:55;20.95;;;10.85;;
8825;SDS011;4449;50.872;4.714;2022-12-15T16:35:23;25.20;;;10.63;;
8825;SDS011;4449;50.872;4.714;2022-12-15T16:37:53;22.98;;;12.63;;
8825;SDS011;4449;50.872;4.714;2022-12-15T16:40:22;19.10;;;11.27;;
8825;SDS011;4449;50.872;4.714;2022-12-15T16:42:52;24.92;;;12.65;;
8825;SDS011;4449;50.872;4.714;2022-12-15T16:45:21;21.30;;;11.27;;